CheckWX is a tool to help pilots better visualize weather data.  It is not intended as a substitute for an official pre-flight weather briefing.

05:03:19 UTC

KSLR METAR
Sulphur Springs Municipal Airport
Sulphur Springs, Texas, USA
Current

8 mins ago

KSLR 170455Z AUTO 10003KT 10SM CLR 25/21 A3000 RMK AO2 T02500211
Observed
Sep-17 @ 04:55 UTC
Wind
  • 100° at 3 KTS
Visibility
10 SM
Flight Rules
VFR
Cloud Levels
  • Clear skies
Temperature
25°C / 77°F
Dewpoint
21°C / 70°F
Humidity
79%
Altimeter
30" Hg
Pressure
1015.92 hPa
Previous

28 mins ago

KSLR 170435Z AUTO 11003KT 10SM CLR 25/21 A3000 RMK AO2 T02510205
Observed
Sep-17 @ 04:35 UTC
Wind
  • 110° at 3 KTS
Visibility
10 SM
Flight Rules
VFR
Cloud Levels
  • Clear skies
Temperature
25°C / 77°F
Dewpoint
21°C / 70°F
Humidity
79%
Altimeter
30" Hg
Pressure
1015.92 hPa
Previous

48 mins ago

KSLR 170415Z AUTO 09003KT 10SM CLR 26/21 A3000 RMK AO2 T02550207
Observed
Sep-17 @ 04:15 UTC
Wind
  • 090° at 3 KTS
Visibility
10 SM
Flight Rules
VFR
Cloud Levels
  • Clear skies
Temperature
26°C / 79°F
Dewpoint
21°C / 70°F
Humidity
74%
Altimeter
30" Hg
Pressure
1015.92 hPa